sensor_id;sensor_type;location;lat;lon;timestamp;temperature;humidity
35523;DHT22;61478;50.820;4.330;2022-12-20T00:01:13;12.20;99.90
35523;DHT22;61478;50.820;4.330;2022-12-20T00:03:42;12.20;99.90
35523;DHT22;61478;50.820;4.330;2022-12-20T00:06:09;12.20;99.90
35523;DHT22;61478;50.820;4.330;2022-12-20T00:08:36;12.10;99.90
35523;DHT22;61478;50.820;4.330;2022-12-20T00:11:05;12.10;99.90
35523;DHT22;61478;50.820;4.330;2022-12-20T00:13:32;12.00;99.90
35523;DHT22;61478;50.820;4.330;2022-12-20T00:16:08;12.10;99.90
35523;DHT22;61478;50.820;4.330;2022-12-20T00:18:36;12.10;99.90
35523;DHT22;61478;50.820;4.330;2022-12-20T00:21:03;12.00;99.90
35523;DHT22;61478;50.820;4.330;2022-12-20T00:23:30;12.00;99.90
35523;DHT22;61478;50.820;4.330;2022-12-20T00:26:10;12.10;99.90
35523;DHT22;61478;50.820;4.330;2022-12-20T00:28:38;12.10;99.90
35523;DHT22;61478;50.820;4.330;2022-12-20T00:31:06;12.00;99.90
35523;DHT22;61478;50.820;4.330;2022-12-20T00:33:36;12.00;99.90
35523;DHT22;61478;50.820;4.330;2022-12-20T00:36:05;12.00;99.90
35523;DHT22;61478;50.820;4.330;2022-12-20T00:38:31;12.00;99.90
35523;DHT22;61478;50.820;4.330;2022-12-20T00:41:06;12.00;99.90
35523;DHT22;61478;50.820;4.330;2022-12-20T00:43:33;12.00;99.90
35523;DHT22;61478;50.820;4.330;2022-12-20T00:46:00;12.00;99.90
35523;DHT22;61478;50.820;4.330;2022-12-20T00:48:27;12.00;99.90
35523;DHT22;61478;50.820;4.330;2022-12-20T00:51:10;12.00;99.90
35523;DHT22;61478;50.820;4.330;2022-12-20T00:53:38;12.00;99.90
35523;DHT22;61478;50.820;4.330;2022-12-20T00:56:05;12.00;99.90
35523;DHT22;61478;50.820;4.330;2022-12-20T00:58:32;12.00;99.90
35523;DHT22;61478;50.820;4.330;2022-12-20T01:00:59;12.00;99.90
35523;DHT22;61478;50.820;4.330;2022-12-20T01:03:25;12.00;99.90
35523;DHT22;61478;50.820;4.330;2022-12-20T01:05:54;12.10;99.90
35523;DHT22;61478;50.820;4.330;2022-12-20T01:08:21;12.00;99.90
35523;DHT22;61478;50.820;4.330;2022-12-20T01:11:12;12.00;99.90
35523;DHT22;61478;50.820;4.330;2022-12-20T01:13:41;11.90;99.90
35523;DHT22;61478;50.820;4.330;2022-12-20T01:16:15;11.90;99.90
35523;DHT22;61478;50.820;4.330;2022-12-20T01:18:42;11.90;99.90
35523;DHT22;61478;50.820;4.330;2022-12-20T01:21:10;11.90;99.90
35523;DHT22;61478;50.820;4.330;2022-12-20T01:23:37;11.90;99.90
35523;DHT22;61478;50.820;4.330;2022-12-20T01:26:05;11.90;99.90
35523;DHT22;61478;50.820;4.330;2022-12-20T01:28:34;11.90;99.90
35523;DHT22;61478;50.820;4.330;2022-12-20T01:31:01;11.90;99.90
35523;DHT22;61478;50.820;4.330;2022-12-20T01:33:27;11.90;99.90
35523;DHT22;61478;50.820;4.330;2022-12-20T01:35:59;11.90;99.90
35523;DHT22;61478;50.820;4.330;2022-12-20T01:38:26;11.90;99.90
35523;DHT22;61478;50.820;4.330;2022-12-20T01:40:53;11.80;99.90
35523;DHT22;61478;50.820;4.330;2022-12-20T01:43:20;11.80;99.90
35523;DHT22;61478;50.820;4.330;2022-12-20T01:45:49;11.80;99.90
35523;DHT22;61478;50.820;4.330;2022-12-20T01:48:22;11.80;99.90
35523;DHT22;61478;50.820;4.330;2022-12-20T01:50:53;11.70;99.90
35523;DHT22;61478;50.820;4.330;2022-12-20T01:53:20;11.70;99.90
35523;DHT22;61478;50.820;4.330;2022-12-20T01:55:48;11.70;99.90
35523;DHT22;61478;50.820;4.330;2022-12-20T01:58:15;11.60;99.90
35523;DHT22;61478;50.820;4.330;2022-12-20T02:00:43;11.60;99.90
35523;DHT22;61478;50.820;4.330;2022-12-20T02:03:13;11.60;99.90
35523;DHT22;61478;50.820;4.330;2022-12-20T02:05:44;11.50;99.90
35523;DHT22;61478;50.820;4.330;2022-12-20T02:08:12;11.50;99.90
35523;DHT22;61478;50.820;4.330;2022-12-20T02:13:41;11.60;99.90
35523;DHT22;61478;50.820;4.330;2022-12-20T02:16:24;11.60;99.90
35523;DHT22;61478;50.820;4.330;2022-12-20T02:19:08;11.60;99.90
35523;DHT22;61478;50.820;4.330;2022-12-20T02:21:45;11.60;99.90
35523;DHT22;61478;50.820;4.330;2022-12-20T02:24:46;11.70;99.90
35523;DHT22;61478;50.820;4.330;2022-12-20T02:27:33;11.70;99.90
35523;DHT22;61478;50.820;4.330;2022-12-20T02:32:39;11.80;99.90
35523;DHT22;61478;50.820;4.330;2022-12-20T02:35:09;11.80;99.90
35523;DHT22;61478;50.820;4.330;2022-12-20T02:37:56;11.90;99.90
35523;DHT22;61478;50.820;4.330;2022-12-20T02:40:27;11.90;99.90
35523;DHT22;61478;50.820;4.330;2022-12-20T02:42:58;11.90;99.90
35523;DHT22;61478;50.820;4.330;2022-12-20T02:45:30;11.90;99.90
35523;DHT22;61478;50.820;4.330;2022-12-20T02:48:09;11.90;99.90
35523;DHT22;61478;50.820;4.330;2022-12-20T02:50:48;11.90;99.90
35523;DHT22;61478;50.820;4.330;2022-12-20T02:53:15;11.90;99.90
35523;DHT22;61478;50.820;4.330;2022-12-20T02:56:04;11.90;99.90
35523;DHT22;61478;50.820;4.330;2022-12-20T02:58:48;11.90;99.90
35523;DHT22;61478;50.820;4.330;2022-12-20T03:01:37;11.90;99.90
35523;DHT22;61478;50.820;4.330;2022-12-20T03:04:05;11.90;99.90
35523;DHT22;61478;50.820;4.330;2022-12-20T03:06:34;11.80;99.90
35523;DHT22;61478;50.820;4.330;2022-12-20T03:09:00;11.80;99.90
35523;DHT22;61478;50.820;4.330;2022-12-20T03:11:27;11.80;99.90
35523;DHT22;61478;50.820;4.330;2022-12-20T03:13:56;11.80;99.90
35523;DHT22;61478;50.820;4.330;2022-12-20T03:16:25;11.80;99.90
35523;DHT22;61478;50.820;4.330;2022-12-20T03:18:51;11.80;99.90
35523;DHT22;61478;50.820;4.330;2022-12-20T03:21:17;11.80;99.90
35523;DHT22;61478;50.820;4.330;2022-12-20T03:23:43;11.80;99.90
35523;DHT22;61478;50.820;4.330;2022-12-20T03:26:10;11.90;99.90
35523;DHT22;61478;50.820;4.330;2022-12-20T03:28:39;11.90;99.90
35523;DHT22;61478;50.820;4.330;2022-12-20T03:31:05;11.90;99.90
35523;DHT22;61478;50.820;4.330;2022-12-20T03:33:31;11.90;99.90
35523;DHT22;61478;50.820;4.330;2022-12-20T03:36:00;11.90;99.90
35523;DHT22;61478;50.820;4.330;2022-12-20T03:38:27;12.00;99.90
35523;DHT22;61478;50.820;4.330;2022-12-20T03:40:53;12.00;99.90
35523;DHT22;61478;50.820;4.330;2022-12-20T03:43:19;12.00;99.90
35523;DHT22;61478;50.820;4.330;2022-12-20T03:45:45;12.00;99.90
35523;DHT22;61478;50.820;4.330;2022-12-20T03:48:13;11.90;99.90
35523;DHT22;61478;50.820;4.330;2022-12-20T03:50:40;11.80;99.90
35523;DHT22;61478;50.820;4.330;2022-12-20T03:53:06;11.80;99.90
35523;DHT22;61478;50.820;4.330;2022-12-20T03:55:33;11.80;99.90
35523;DHT22;61478;50.820;4.330;2022-12-20T03:57:59;11.80;99.90
35523;DHT22;61478;50.820;4.330;2022-12-20T04:00:25;11.80;99.90
35523;DHT22;61478;50.820;4.330;2022-12-20T04:02:51;11.80;99.90
35523;DHT22;61478;50.820;4.330;2022-12-20T04:05:17;11.80;99.90
35523;DHT22;61478;50.820;4.330;2022-12-20T04:07:44;11.80;99.90
35523;DHT22;61478;50.820;4.330;2022-12-20T04:10:13;11.80;99.90
35523;DHT22;61478;50.820;4.330;2022-12-20T04:12:40;11.80;99.90
35523;DHT22;61478;50.820;4.330;2022-12-20T04:15:09;11.80;99.90
35523;DHT22;61478;50.820;4.330;2022-12-20T04:17:35;11.80;99.90
35523;DHT22;61478;50.820;4.330;2022-12-20T04:20:02;11.70;99.90
35523;DHT22;61478;50.820;4.330;2022-12-20T04:22:47;11.80;99.90
35523;DHT22;61478;50.820;4.330;2022-12-20T04:25:14;11.80;99.90
35523;DHT22;61478;50.820;4.330;2022-12-20T04:27:40;11.80;99.90
35523;DHT22;61478;50.820;4.330;2022-12-20T04:30:07;11.80;99.90
35523;DHT22;61478;50.820;4.330;2022-12-20T04:32:33;11.80;99.90
35523;DHT22;61478;50.820;4.330;2022-12-20T04:34:59;11.90;99.90
35523;DHT22;61478;50.820;4.330;2022-12-20T04:37:25;11.90;99.90
35523;DHT22;61478;50.820;4.330;2022-12-20T04:39:52;11.90;99.90
35523;DHT22;61478;50.820;4.330;2022-12-20T04:42:21;11.90;99.90
35523;DHT22;61478;50.820;4.330;2022-12-20T04:44:47;11.90;99.90
35523;DHT22;61478;50.820;4.330;2022-12-20T04:47:14;11.90;99.90
35523;DHT22;61478;50.820;4.330;2022-12-20T04:49:40;12.00;99.90
35523;DHT22;61478;50.820;4.330;2022-12-20T04:52:06;12.00;99.90
35523;DHT22;61478;50.820;4.330;2022-12-20T04:54:50;12.10;99.90
35523;DHT22;61478;50.820;4.330;2022-12-20T04:57:16;12.00;99.90
35523;DHT22;61478;50.820;4.330;2022-12-20T04:59:43;12.00;99.90
35523;DHT22;61478;50.820;4.330;2022-12-20T05:02:09;12.10;99.90
35523;DHT22;61478;50.820;4.330;2022-12-20T05:04:35;12.00;99.90
35523;DHT22;61478;50.820;4.330;2022-12-20T05:07:01;12.00;99.90
35523;DHT22;61478;50.820;4.330;2022-12-20T05:09:30;12.00;99.90
35523;DHT22;61478;50.820;4.330;2022-12-20T05:11:56;12.00;99.90
35523;DHT22;61478;50.820;4.330;2022-12-20T05:14:22;12.00;99.90
35523;DHT22;61478;50.820;4.330;2022-12-20T05:16:48;12.00;99.90
35523;DHT22;61478;50.820;4.330;2022-12-20T05:19:17;11.90;99.90
35523;DHT22;61478;50.820;4.330;2022-12-20T05:21:43;12.00;99.90
35523;DHT22;61478;50.820;4.330;2022-12-20T05:24:27;12.00;99.90
35523;DHT22;61478;50.820;4.330;2022-12-20T05:27:12;12.00;99.90
35523;DHT22;61478;50.820;4.330;2022-12-20T05:29:39;12.00;99.90
35523;DHT22;61478;50.820;4.330;2022-12-20T05:32:05;11.90;99.90
35523;DHT22;61478;50.820;4.330;2022-12-20T05:34:31;11.90;99.90
35523;DHT22;61478;50.820;4.330;2022-12-20T05:36:57;11.90;99.90
35523;DHT22;61478;50.820;4.330;2022-12-20T05:39:23;12.00;99.90
35523;DHT22;61478;50.820;4.330;2022-12-20T05:41:49;12.00;99.90
35523;DHT22;61478;50.820;4.330;2022-12-20T05:44:19;12.00;99.90
35523;DHT22;61478;50.820;4.330;2022-12-20T05:46:46;12.00;99.90
35523;DHT22;61478;50.820;4.330;2022-12-20T05:49:13;12.00;99.90
35523;DHT22;61478;50.820;4.330;2022-12-20T05:51:39;12.00;99.90
35523;DHT22;61478;50.820;4.330;2022-12-20T05:54:05;12.00;99.90
35523;DHT22;61478;50.820;4.330;2022-12-20T05:56:31;11.90;99.90
35523;DHT22;61478;50.820;4.330;2022-12-20T05:59:00;11.80;99.90
35523;DHT22;61478;50.820;4.330;2022-12-20T06:01:26;11.90;99.90
35523;DHT22;61478;50.820;4.330;2022-12-20T06:03:52;12.00;99.90
35523;DHT22;61478;50.820;4.330;2022-12-20T06:06:19;12.00;99.90
35523;DHT22;61478;50.820;4.330;2022-12-20T06:08:45;12.10;99.90
35523;DHT22;61478;50.820;4.330;2022-12-20T06:11:11;12.10;99.90
35523;DHT22;61478;50.820;4.330;2022-12-20T06:13:37;12.10;99.90
35523;DHT22;61478;50.820;4.330;2022-12-20T06:16:04;12.10;99.90
35523;DHT22;61478;50.820;4.330;2022-12-20T06:18:30;12.10;99.90
35523;DHT22;61478;50.820;4.330;2022-12-20T06:20:56;12.10;99.90
35523;DHT22;61478;50.820;4.330;2022-12-20T06:23:22;12.10;99.90
35523;DHT22;61478;50.820;4.330;2022-12-20T06:25:49;12.20;99.90
35523;DHT22;61478;50.820;4.330;2022-12-20T06:28:18;12.20;99.90
35523;DHT22;61478;50.820;4.330;2022-12-20T06:30:56;12.20;99.90
35523;DHT22;61478;50.820;4.330;2022-12-20T06:33:23;12.20;99.90
35523;DHT22;61478;50.820;4.330;2022-12-20T06:35:50;12.30;99.90
35523;DHT22;61478;50.820;4.330;2022-12-20T06:38:16;12.20;99.90
35523;DHT22;61478;50.820;4.330;2022-12-20T06:40:43;12.30;99.90
35523;DHT22;61478;50.820;4.330;2022-12-20T06:43:09;12.30;99.90
35523;DHT22;61478;50.820;4.330;2022-12-20T06:45:35;12.40;99.90
35523;DHT22;61478;50.820;4.330;2022-12-20T06:48:01;12.40;99.90
35523;DHT22;61478;50.820;4.330;2022-12-20T06:50:27;12.40;99.90
35523;DHT22;61478;50.820;4.330;2022-12-20T06:52:53;12.40;99.90
35523;DHT22;61478;50.820;4.330;2022-12-20T06:55:19;12.40;99.90
35523;DHT22;61478;50.820;4.330;2022-12-20T06:57:48;12.40;99.90
35523;DHT22;61478;50.820;4.330;2022-12-20T07:00:15;12.40;99.90
35523;DHT22;61478;50.820;4.330;2022-12-20T07:02:41;12.40;99.90
35523;DHT22;61478;50.820;4.330;2022-12-20T07:05:11;12.30;99.90
35523;DHT22;61478;50.820;4.330;2022-12-20T07:07:37;12.20;99.90
35523;DHT22;61478;50.820;4.330;2022-12-20T07:10:03;12.20;99.90
35523;DHT22;61478;50.820;4.330;2022-12-20T07:12:30;12.00;99.90
35523;DHT22;61478;50.820;4.330;2022-12-20T07:14:57;12.00;99.90
35523;DHT22;61478;50.820;4.330;2022-12-20T07:17:26;11.90;99.90
35523;DHT22;61478;50.820;4.330;2022-12-20T07:19:53;11.80;99.90
35523;DHT22;61478;50.820;4.330;2022-12-20T07:22:22;11.70;99.90
35523;DHT22;61478;50.820;4.330;2022-12-20T07:24:51;11.60;99.90
35523;DHT22;61478;50.820;4.330;2022-12-20T07:27:17;11.60;99.90
35523;DHT22;61478;50.820;4.330;2022-12-20T07:29:44;11.50;99.90
35523;DHT22;61478;50.820;4.330;2022-12-20T07:32:11;11.50;99.90
35523;DHT22;61478;50.820;4.330;2022-12-20T07:34:40;11.40;99.90
35523;DHT22;61478;50.820;4.330;2022-12-20T07:37:09;11.30;99.90
35523;DHT22;61478;50.820;4.330;2022-12-20T07:39:36;11.30;99.90
35523;DHT22;61478;50.820;4.330;2022-12-20T07:42:07;11.20;99.90
35523;DHT22;61478;50.820;4.330;2022-12-20T07:44:36;11.20;99.90
35523;DHT22;61478;50.820;4.330;2022-12-20T07:47:02;11.20;99.90
35523;DHT22;61478;50.820;4.330;2022-12-20T07:49:28;11.10;99.90
35523;DHT22;61478;50.820;4.330;2022-12-20T07:52:00;11.20;99.90
35523;DHT22;61478;50.820;4.330;2022-12-20T07:54:32;11.10;99.90
35523;DHT22;61478;50.820;4.330;2022-12-20T07:57:05;11.10;99.90
35523;DHT22;61478;50.820;4.330;2022-12-20T07:59:38;11.00;99.90
35523;DHT22;61478;50.820;4.330;2022-12-20T08:02:14;11.00;99.90
35523;DHT22;61478;50.820;4.330;2022-12-20T08:04:41;11.00;99.90
35523;DHT22;61478;50.820;4.330;2022-12-20T08:07:08;11.00;99.90
35523;DHT22;61478;50.820;4.330;2022-12-20T08:09:38;10.90;99.90
35523;DHT22;61478;50.820;4.330;2022-12-20T08:12:07;10.90;99.90
35523;DHT22;61478;50.820;4.330;2022-12-20T08:14:36;10.90;99.90
35523;DHT22;61478;50.820;4.330;2022-12-20T08:17:02;10.90;99.90
35523;DHT22;61478;50.820;4.330;2022-12-20T08:19:31;10.90;99.90
35523;DHT22;61478;50.820;4.330;2022-12-20T08:21:57;10.90;99.90
35523;DHT22;61478;50.820;4.330;2022-12-20T08:24:24;10.90;99.90
35523;DHT22;61478;50.820;4.330;2022-12-20T08:26:50;10.90;99.90
35523;DHT22;61478;50.820;4.330;2022-12-20T08:29:16;11.00;99.90
35523;DHT22;61478;50.820;4.330;2022-12-20T08:31:46;11.00;99.90
35523;DHT22;61478;50.820;4.330;2022-12-20T08:34:12;11.00;99.90
35523;DHT22;61478;50.820;4.330;2022-12-20T08:36:38;11.00;99.90
35523;DHT22;61478;50.820;4.330;2022-12-20T08:39:05;11.00;99.90
35523;DHT22;61478;50.820;4.330;2022-12-20T08:41:33;11.00;99.90
35523;DHT22;61478;50.820;4.330;2022-12-20T08:44:03;11.00;99.90
35523;DHT22;61478;50.820;4.330;2022-12-20T08:46:29;11.10;99.90
35523;DHT22;61478;50.820;4.330;2022-12-20T08:48:55;11.00;99.90
35523;DHT22;61478;50.820;4.330;2022-12-20T08:51:21;11.10;99.90
35523;DHT22;61478;50.820;4.330;2022-12-20T08:53:47;11.10;99.90
35523;DHT22;61478;50.820;4.330;2022-12-20T08:56:15;11.10;99.90
35523;DHT22;61478;50.820;4.330;2022-12-20T08:58:43;11.20;99.90
35523;DHT22;61478;50.820;4.330;2022-12-20T09:01:17;11.20;99.90
35523;DHT22;61478;50.820;4.330;2022-12-20T09:03:47;11.20;99.90
35523;DHT22;61478;50.820;4.330;2022-12-20T09:06:16;11.10;99.90
35523;DHT22;61478;50.820;4.330;2022-12-20T09:08:46;11.10;99.90
35523;DHT22;61478;50.820;4.330;2022-12-20T09:11:21;11.10;99.90
35523;DHT22;61478;50.820;4.330;2022-12-20T09:13:49;11.20;99.90
35523;DHT22;61478;50.820;4.330;2022-12-20T09:16:17;11.20;99.90
35523;DHT22;61478;50.820;4.330;2022-12-20T09:18:55;11.20;99.90
35523;DHT22;61478;50.820;4.330;2022-12-20T09:21:22;11.20;99.90
35523;DHT22;61478;50.820;4.330;2022-12-20T09:23:52;11.20;99.90
35523;DHT22;61478;50.820;4.330;2022-12-20T09:26:20;11.20;99.90
35523;DHT22;61478;50.820;4.330;2022-12-20T09:28:47;11.30;99.90
35523;DHT22;61478;50.820;4.330;2022-12-20T09:31:16;11.30;99.90
35523;DHT22;61478;50.820;4.330;2022-12-20T09:33:43;11.20;99.90
35523;DHT22;61478;50.820;4.330;2022-12-20T09:36:15;11.20;99.90
35523;DHT22;61478;50.820;4.330;2022-12-20T09:38:45;11.20;99.90
35523;DHT22;61478;50.820;4.330;2022-12-20T09:41:30;11.20;99.90
35523;DHT22;61478;50.820;4.330;2022-12-20T09:44:00;11.20;99.90
35523;DHT22;61478;50.820;4.330;2022-12-20T09:46:29;11.20;99.90
35523;DHT22;61478;50.820;4.330;2022-12-20T09:48:56;11.20;99.90
35523;DHT22;61478;50.820;4.330;2022-12-20T09:51:46;11.20;99.90
35523;DHT22;61478;50.820;4.330;2022-12-20T09:59:49;11.10;99.90
35523;DHT22;61478;50.820;4.330;2022-12-20T10:02:19;11.00;99.90
35523;DHT22;61478;50.820;4.330;2022-12-20T10:04:48;11.00;99.90
35523;DHT22;61478;50.820;4.330;2022-12-20T10:07:48;11.10;99.90
35523;DHT22;61478;50.820;4.330;2022-12-20T10:10:29;11.00;99.90
35523;DHT22;61478;50.820;4.330;2022-12-20T10:13:24;11.00;99.90
35523;DHT22;61478;50.820;4.330;2022-12-20T10:21:40;11.00;99.90
35523;DHT22;61478;50.820;4.330;2022-12-20T10:24:17;11.10;99.90
35523;DHT22;61478;50.820;4.330;2022-12-20T10:26:43;11.00;99.90
35523;DHT22;61478;50.820;4.330;2022-12-20T10:29:10;11.00;99.90
35523;DHT22;61478;50.820;4.330;2022-12-20T10:31:38;11.00;99.90
35523;DHT22;61478;50.820;4.330;2022-12-20T10:34:04;11.10;99.90
35523;DHT22;61478;50.820;4.330;2022-12-20T10:36:35;11.00;99.90
35523;DHT22;61478;50.820;4.330;2022-12-20T10:39:07;11.00;99.90
35523;DHT22;61478;50.820;4.330;2022-12-20T10:41:48;11.00;99.90
35523;DHT22;61478;50.820;4.330;2022-12-20T10:46:50;11.00;99.90
35523;DHT22;61478;50.820;4.330;2022-12-20T10:49:26;11.00;99.90
35523;DHT22;61478;50.820;4.330;2022-12-20T10:54:37;10.90;99.90
35523;DHT22;61478;50.820;4.330;2022-12-20T10:57:17;11.00;99.90
35523;DHT22;61478;50.820;4.330;2022-12-20T10:59:59;10.90;99.90
35523;DHT22;61478;50.820;4.330;2022-12-20T11:02:33;11.00;99.90
35523;DHT22;61478;50.820;4.330;2022-12-20T11:05:18;10.90;99.90
35523;DHT22;61478;50.820;4.330;2022-12-20T11:07:58;10.90;99.90
35523;DHT22;61478;50.820;4.330;2022-12-20T11:10:27;10.90;99.90
35523;DHT22;61478;50.820;4.330;2022-12-20T11:12:59;10.90;99.90
35523;DHT22;61478;50.820;4.330;2022-12-20T11:15:30;11.00;99.90
35523;DHT22;61478;50.820;4.330;2022-12-20T11:18:05;10.90;99.90
35523;DHT22;61478;50.820;4.330;2022-12-20T11:20:44;10.90;99.90
35523;DHT22;61478;50.820;4.330;2022-12-20T11:23:47;10.90;99.90
35523;DHT22;61478;50.820;4.330;2022-12-20T11:26:40;10.80;99.90
35523;DHT22;61478;50.820;4.330;2022-12-20T11:29:44;10.90;99.90
35523;DHT22;61478;50.820;4.330;2022-12-20T11:35:16;10.90;99.90
35523;DHT22;61478;50.820;4.330;2022-12-20T11:40:35;10.80;99.90
35523;DHT22;61478;50.820;4.330;2022-12-20T11:43:20;10.80;99.90
35523;DHT22;61478;50.820;4.330;2022-12-20T11:49:07;10.80;99.90
35523;DHT22;61478;50.820;4.330;2022-12-20T11:51:52;10.80;99.90
35523;DHT22;61478;50.820;4.330;2022-12-20T11:54:25;10.80;99.90
35523;DHT22;61478;50.820;4.330;2022-12-20T11:56:56;10.80;99.90
35523;DHT22;61478;50.820;4.330;2022-12-20T11:59:34;10.70;99.90
35523;DHT22;61478;50.820;4.330;2022-12-20T12:02:34;10.70;99.90
35523;DHT22;61478;50.820;4.330;2022-12-20T12:07:58;10.70;99.90
35523;DHT22;61478;50.820;4.330;2022-12-20T12:10:32;10.70;99.90
35523;DHT22;61478;50.820;4.330;2022-12-20T12:13:34;10.70;99.90
35523;DHT22;61478;50.820;4.330;2022-12-20T12:16:17;10.70;99.90
35523;DHT22;61478;50.820;4.330;2022-12-20T12:18:45;10.70;99.90
35523;DHT22;61478;50.820;4.330;2022-12-20T12:21:19;10.60;99.90
35523;DHT22;61478;50.820;4.330;2022-12-20T12:24:47;10.70;99.90
35523;DHT22;61478;50.820;4.330;2022-12-20T12:26:52;10.60;99.90
35523;DHT22;61478;50.820;4.330;2022-12-20T12:29:21;10.70;99.90
35523;DHT22;61478;50.820;4.330;2022-12-20T12:42:55;10.60;99.90
35523;DHT22;61478;50.820;4.330;2022-12-20T12:45:45;10.60;99.90
35523;DHT22;61478;50.820;4.330;2022-12-20T12:50:46;10.60;99.90
35523;DHT22;61478;50.820;4.330;2022-12-20T13:02:18;10.60;99.90
35523;DHT22;61478;50.820;4.330;2022-12-20T13:07:42;10.60;99.90
35523;DHT22;61478;50.820;4.330;2022-12-20T13:12:56;10.60;99.90
35523;DHT22;61478;50.820;4.330;2022-12-20T13:18:00;10.60;99.90
35523;DHT22;61478;50.820;4.330;2022-12-20T13:21:16;10.60;99.90
35523;DHT22;61478;50.820;4.330;2022-12-20T13:23:43;10.60;99.90
35523;DHT22;61478;50.820;4.330;2022-12-20T13:26:46;10.60;99.90
35523;DHT22;61478;50.820;4.330;2022-12-20T13:29:24;10.60;99.90
35523;DHT22;61478;50.820;4.330;2022-12-20T13:31:53;10.50;99.90
35523;DHT22;61478;50.820;4.330;2022-12-20T13:34:52;10.60;99.90
35523;DHT22;61478;50.820;4.330;2022-12-20T13:37:50;10.60;99.90
35523;DHT22;61478;50.820;4.330;2022-12-20T13:46:12;10.50;99.90
35523;DHT22;61478;50.820;4.330;2022-12-20T13:48:51;10.50;99.90
35523;DHT22;61478;50.820;4.330;2022-12-20T13:51:26;10.50;99.90
35523;DHT22;61478;50.820;4.330;2022-12-20T13:53:55;10.60;99.90
35523;DHT22;61478;50.820;4.330;2022-12-20T13:59:03;10.60;99.90
35523;DHT22;61478;50.820;4.330;2022-12-20T14:01:30;10.60;99.90
35523;DHT22;61478;50.820;4.330;2022-12-20T14:03:58;10.50;99.90
35523;DHT22;61478;50.820;4.330;2022-12-20T14:06:33;10.60;99.90
35523;DHT22;61478;50.820;4.330;2022-12-20T14:09:00;10.60;99.90
35523;DHT22;61478;50.820;4.330;2022-12-20T14:11:26;10.60;99.90
35523;DHT22;61478;50.820;4.330;2022-12-20T14:13:58;10.60;99.90
35523;DHT22;61478;50.820;4.330;2022-12-20T14:16:27;10.70;99.90
35523;DHT22;61478;50.820;4.330;2022-12-20T14:21:25;10.70;99.90
35523;DHT22;61478;50.820;4.330;2022-12-20T14:23:58;10.60;99.90
35523;DHT22;61478;50.820;4.330;2022-12-20T14:26:28;10.60;99.90
35523;DHT22;61478;50.820;4.330;2022-12-20T14:28:59;10.70;99.90
35523;DHT22;61478;50.820;4.330;2022-12-20T14:36:46;10.70;99.90
35523;DHT22;61478;50.820;4.330;2022-12-20T14:39:28;10.60;99.90
35523;DHT22;61478;50.820;4.330;2022-12-20T14:42:04;10.60;99.90
35523;DHT22;61478;50.820;4.330;2022-12-20T14:44:37;10.60;99.90
35523;DHT22;61478;50.820;4.330;2022-12-20T14:47:18;10.60;99.90
35523;DHT22;61478;50.820;4.330;2022-12-20T14:49:48;10.60;99.90
35523;DHT22;61478;50.820;4.330;2022-12-20T14:52:28;10.60;99.90
35523;DHT22;61478;50.820;4.330;2022-12-20T14:55:08;10.60;99.90
35523;DHT22;61478;50.820;4.330;2022-12-20T14:57:47;10.50;99.90
35523;DHT22;61478;50.820;4.330;2022-12-20T15:00:22;10.60;99.90
35523;DHT22;61478;50.820;4.330;2022-12-20T15:13:36;10.60;99.90
35523;DHT22;61478;50.820;4.330;2022-12-20T15:19:00;10.60;99.90
35523;DHT22;61478;50.820;4.330;2022-12-20T15:21:40;10.50;99.90
35523;DHT22;61478;50.820;4.330;2022-12-20T15:24:23;10.60;99.90
35523;DHT22;61478;50.820;4.330;2022-12-20T15:26:50;10.50;99.90
35523;DHT22;61478;50.820;4.330;2022-12-20T15:29:22;10.50;99.90
35523;DHT22;61478;50.820;4.330;2022-12-20T15:32:03;10.50;99.90
35523;DHT22;61478;50.820;4.330;2022-12-20T15:34:33;10.60;99.90
35523;DHT22;61478;50.820;4.330;2022-12-20T15:37:01;10.60;99.90
35523;DHT22;61478;50.820;4.330;2022-12-20T15:39:31;10.60;99.90
35523;DHT22;61478;50.820;4.330;2022-12-20T15:41:59;10.60;99.90
35523;DHT22;61478;50.820;4.330;2022-12-20T15:44:28;10.50;99.90
35523;DHT22;61478;50.820;4.330;2022-12-20T15:46:55;10.60;99.90
35523;DHT22;61478;50.820;4.330;2022-12-20T15:49:25;10.60;99.90
35523;DHT22;61478;50.820;4.330;2022-12-20T15:51:55;10.70;99.90
35523;DHT22;61478;50.820;4.330;2022-12-20T15:54:31;10.70;99.90
35523;DHT22;61478;50.820;4.330;2022-12-20T15:57:04;10.70;99.90
35523;DHT22;61478;50.820;4.330;2022-12-20T15:59:33;10.70;99.90
35523;DHT22;61478;50.820;4.330;2022-12-20T16:01:59;10.70;99.90
35523;DHT22;61478;50.820;4.330;2022-12-20T16:04:28;10.70;99.90
35523;DHT22;61478;50.820;4.330;2022-12-20T16:06:54;10.70;99.90
35523;DHT22;61478;50.820;4.330;2022-12-20T16:09:23;10.70;99.90
35523;DHT22;61478;50.820;4.330;2022-12-20T16:11:50;10.70;99.90
35523;DHT22;61478;50.820;4.330;2022-12-20T16:14:20;10.70;99.90
35523;DHT22;61478;50.820;4.330;2022-12-20T16:16:46;10.70;99.90
35523;DHT22;61478;50.820;4.330;2022-12-20T16:19:15;10.60;99.90
35523;DHT22;61478;50.820;4.330;2022-12-20T16:21:46;10.70;99.90
35523;DHT22;61478;50.820;4.330;2022-12-20T16:24:18;10.60;99.90
35523;DHT22;61478;50.820;4.330;2022-12-20T16:26:48;10.60;99.90
35523;DHT22;61478;50.820;4.330;2022-12-20T16:29:14;10.60;99.90
35523;DHT22;61478;50.820;4.330;2022-12-20T16:31:44;10.70;99.90
35523;DHT22;61478;50.820;4.330;2022-12-20T16:34:17;10.70;99.90
35523;DHT22;61478;50.820;4.330;2022-12-20T16:36:45;10.70;99.90
35523;DHT22;61478;50.820;4.330;2022-12-20T16:39:14;10.70;99.90
35523;DHT22;61478;50.820;4.330;2022-12-20T16:41:40;10.60;99.90
35523;DHT22;61478;50.820;4.330;2022-12-20T16:44:13;10.70;99.90
35523;DHT22;61478;50.820;4.330;2022-12-20T16:46:42;10.70;99.90
35523;DHT22;61478;50.820;4.330;2022-12-20T16:49:11;10.60;99.90
35523;DHT22;61478;50.820;4.330;2022-12-20T16:51:44;10.60;99.90
35523;DHT22;61478;50.820;4.330;2022-12-20T16:54:21;10.60;99.90
35523;DHT22;61478;50.820;4.330;2022-12-20T16:56:52;10.50;99.90
35523;DHT22;61478;50.820;4.330;2022-12-20T16:59:25;10.50;99.90
35523;DHT22;61478;50.820;4.330;2022-12-20T17:01:53;10.40;99.90
35523;DHT22;61478;50.820;4.330;2022-12-20T17:04:23;10.40;99.90
35523;DHT22;61478;50.820;4.330;2022-12-20T17:06:52;10.40;99.90
35523;DHT22;61478;50.820;4.330;2022-12-20T17:09:19;10.40;99.90
35523;DHT22;61478;50.820;4.330;2022-12-20T17:11:45;10.40;99.90
35523;DHT22;61478;50.820;4.330;2022-12-20T17:14:15;10.40;99.90
35523;DHT22;61478;50.820;4.330;2022-12-20T17:16:43;10.40;99.90
35523;DHT22;61478;50.820;4.330;2022-12-20T17:19:09;10.50;99.90
35523;DHT22;61478;50.820;4.330;2022-12-20T17:21:46;10.40;99.90
35523;DHT22;61478;50.820;4.330;2022-12-20T17:24:19;10.40;99.90
35523;DHT22;61478;50.820;4.330;2022-12-20T17:26:49;10.40;99.90
35523;DHT22;61478;50.820;4.330;2022-12-20T17:29:16;10.40;99.90